createdAt,value
2023-03-27T00:00:16.745Z,2.20
2023-03-27T00:03:20.593Z,2.78
2023-03-27T00:06:25.084Z,2.40
2023-03-27T00:09:29.647Z,2.20
2023-03-27T00:12:33.542Z,2.40
2023-03-27T00:15:36.816Z,2.47
2023-03-27T00:18:39.495Z,2.33
2023-03-27T00:21:42.478Z,2.10
2023-03-27T00:24:45.679Z,1.97
2023-03-27T00:27:49.138Z,2.62
2023-03-27T00:30:52.196Z,2.62
2023-03-27T00:33:55.942Z,2.20
2023-03-27T00:36:58.849Z,2.40
2023-03-27T00:40:01.987Z,2.40
2023-03-27T00:43:43.696Z,2.28
2023-03-27T00:46:46.755Z,2.60
2023-03-27T00:49:49.991Z,2.85
2023-03-27T00:52:56.409Z,2.70
2023-03-27T00:56:01.863Z,2.83
2023-03-27T00:59:10.883Z,2.83
2023-03-27T01:02:14.526Z,3.40
2023-03-27T01:05:18.725Z,3.15
2023-03-27T01:08:22.230Z,2.83
2023-03-27T01:11:43.931Z,2.57
2023-03-27T01:15:04.927Z,3.20
2023-03-27T01:18:20.035Z,2.58
2023-03-27T01:21:38.084Z,2.58
2023-03-27T01:25:07.813Z,2.70
2023-03-27T01:28:41.177Z,3.00
2023-03-27T01:31:54.268Z,2.60
2023-03-27T01:35:15.421Z,2.28
2023-03-27T01:38:29.482Z,2.80
2023-03-27T01:41:51.039Z,3.10
2023-03-27T01:45:20.348Z,3.30
2023-03-27T01:48:26.468Z,2.70
2023-03-27T01:51:34.716Z,3.47
2023-03-27T01:54:46.668Z,3.10
2023-03-27T01:57:54.269Z,3.35
2023-03-27T02:01:01.388Z,3.10
2023-03-27T02:04:07.606Z,3.10
2023-03-27T02:07:14.984Z,3.78
2023-03-27T02:10:23.327Z,3.85
2023-03-27T02:13:30.779Z,3.45
2023-03-27T02:16:35.985Z,4.00
2023-03-27T02:20:02.492Z,3.90
2023-03-27T02:23:06.404Z,4.05
2023-03-27T02:26:11.604Z,3.50
2023-03-27T02:29:35.804Z,3.28
2023-03-27T02:32:56.427Z,3.10
2023-03-27T02:36:48.258Z,3.65
2023-03-27T02:40:17.258Z,3.30
2023-03-27T02:43:31.327Z,2.67
2023-03-27T02:46:50.754Z,2.80
2023-03-27T02:49:57.852Z,2.90
2023-03-27T02:53:02.295Z,2.87
2023-03-27T02:56:07.155Z,3.05
2023-03-27T02:59:25.958Z,3.00
2023-03-27T03:02:32.677Z,3.00
2023-03-27T03:05:37.200Z,2.80
2023-03-27T03:08:39.978Z,2.95
2023-03-27T03:11:53.169Z,3.83
2023-03-27T03:14:56.576Z,4.32
2023-03-27T03:17:59.951Z,4.28
2023-03-27T03:21:02.688Z,4.10
2023-03-27T03:24:07.678Z,3.83
2023-03-27T03:27:10.802Z,4.00
2023-03-27T03:30:16.889Z,3.87
2023-03-27T03:33:21.422Z,3.47
2023-03-27T03:36:24.257Z,3.70
2023-03-27T03:39:26.837Z,3.50
2023-03-27T03:42:30.326Z,3.15
2023-03-27T03:45:34.673Z,3.22
2023-03-27T03:48:37.748Z,3.45
2023-03-27T03:51:41.078Z,3.00
2023-03-27T03:54:46.594Z,3.00
2023-03-27T03:57:50.226Z,2.95
2023-03-27T04:00:54.621Z,2.60
2023-03-27T04:03:59.069Z,2.70
2023-03-27T04:07:02.977Z,2.63
2023-03-27T04:10:08.729Z,3.12
2023-03-27T04:13:16.899Z,2.50
2023-03-27T04:16:21.334Z,2.37
2023-03-27T04:19:24.725Z,2.20
2023-03-27T04:22:29.283Z,2.20
2023-03-27T04:25:32.260Z,1.55
2023-03-27T04:28:35.513Z,1.95
2023-03-27T04:31:40.336Z,1.40
2023-03-27T04:34:48.328Z,1.67
2023-03-27T04:37:51.592Z,1.40
2023-03-27T04:40:58.321Z,1.10
2023-03-27T04:44:01.051Z,1.40
2023-03-27T04:47:08.698Z,1.08
2023-03-27T04:50:12.930Z,1.30
2023-03-27T04:53:20.473Z,1.27
2023-03-27T04:56:23.823Z,1.27
2023-03-27T04:59:32.153Z,0.98
2023-03-27T05:02:36.308Z,1.60
2023-03-27T05:05:39.448Z,1.42
2023-03-27T05:08:42.508Z,1.20
2023-03-27T05:11:52.999Z,1.33
2023-03-27T05:14:55.872Z,1.35
2023-03-27T05:17:59.471Z,1.37
2023-03-27T05:21:02.339Z,1.05
2023-03-27T05:24:05.758Z,1.40
2023-03-27T05:27:08.440Z,1.00
2023-03-27T05:30:17.202Z,1.30
2023-03-27T05:33:20.789Z,1.40
2023-03-27T05:36:23.837Z,1.50
2023-03-27T05:39:27.136Z,1.40
2023-03-27T05:42:30.332Z,1.58
2023-03-27T05:45:33.972Z,1.70
2023-03-27T05:48:38.675Z,1.62
2023-03-27T05:51:47.139Z,1.80
2023-03-27T05:54:54.274Z,1.70
2023-03-27T05:57:56.937Z,1.60
2023-03-27T06:01:00.708Z,1.60
2023-03-27T06:04:04.429Z,1.40
2023-03-27T06:07:07.698Z,1.50
2023-03-27T06:10:14.342Z,1.77
2023-03-27T06:13:21.294Z,1.55
2023-03-27T06:16:25.501Z,1.70
2023-03-27T06:19:30.067Z,1.20
2023-03-27T06:22:33.827Z,1.20
2023-03-27T06:25:39.400Z,1.13
2023-03-27T06:28:42.702Z,1.30
2023-03-27T06:31:46.044Z,1.35
2023-03-27T06:34:50.206Z,0.95
2023-03-27T06:38:02.765Z,1.30
2023-03-27T06:41:07.499Z,1.27
2023-03-27T06:44:11.804Z,1.60
2023-03-27T06:47:18.921Z,0.98
2023-03-27T06:50:24.241Z,0.80
2023-03-27T06:53:31.170Z,1.10
2023-03-27T06:56:37.121Z,1.00
2023-03-27T06:59:47.209Z,1.50
2023-03-27T07:02:57.544Z,1.23
2023-03-27T07:06:02.922Z,0.85
2023-03-27T07:09:07.935Z,1.15
2023-03-27T07:12:11.119Z,0.53
2023-03-27T07:15:14.309Z,0.80
2023-03-27T07:18:17.609Z,0.70
2023-03-27T07:21:24.699Z,0.80
2023-03-27T07:24:27.685Z,1.02
2023-03-27T07:27:30.657Z,0.70
2023-03-27T07:30:34.885Z,1.00
2023-03-27T07:33:38.480Z,0.90
2023-03-27T07:36:41.770Z,1.02
2023-03-27T07:39:44.661Z,1.17
2023-03-27T07:42:49.322Z,0.77
2023-03-27T07:45:52.285Z,0.88
2023-03-27T07:48:56.824Z,1.02
2023-03-27T07:52:00.560Z,0.93
2023-03-27T07:55:05.218Z,0.60
2023-03-27T07:58:08.496Z,1.20
2023-03-27T08:01:12.282Z,1.08
2023-03-27T08:04:15.472Z,0.90
2023-03-27T08:07:22.602Z,1.10
2023-03-27T08:10:26.064Z,1.02
2023-03-27T08:13:30.251Z,1.00
2023-03-27T08:16:37.023Z,0.70
2023-03-27T08:19:40.105Z,0.90
2023-03-27T08:22:43.842Z,0.90
2023-03-27T08:25:50.538Z,1.55
2023-03-27T08:28:56.100Z,1.47
2023-03-27T08:31:59.065Z,1.40
2023-03-27T08:35:01.932Z,1.33
2023-03-27T08:38:07.342Z,1.80
2023-03-27T08:41:27.158Z,1.50
2023-03-27T08:44:33.881Z,2.23
2023-03-27T08:47:41.726Z,1.80
2023-03-27T08:50:53.429Z,2.03
2023-03-27T08:54:08.329Z,1.73
2023-03-27T08:57:18.496Z,2.00
2023-03-27T09:00:31.811Z,1.87
2023-03-27T09:04:10.306Z,1.75
2023-03-27T09:07:56.936Z,1.80
2023-03-27T09:11:44.322Z,1.55
2023-03-27T09:14:54.818Z,1.42
2023-03-27T09:18:25.123Z,1.27
2023-03-27T09:21:33.798Z,1.30
2023-03-27T09:24:42.261Z,1.20
2023-03-27T09:27:48.639Z,1.12
2023-03-27T09:30:53.082Z,0.80
2023-03-27T09:34:01.121Z,0.87
2023-03-27T09:37:11.957Z,0.80
2023-03-27T09:40:30.256Z,0.90
2023-03-27T09:43:42.108Z,0.70
2023-03-27T09:46:47.969Z,0.80
2023-03-27T09:49:56.301Z,0.90
2023-03-27T09:53:07.883Z,0.90
2023-03-27T09:56:16.293Z,0.80
2023-03-27T09:59:27.501Z,0.77
2023-03-27T10:02:31.094Z,0.98
2023-03-27T10:05:34.965Z,0.90
2023-03-27T10:08:42.190Z,0.90
2023-03-27T10:11:45.801Z,0.70
2023-03-27T10:14:52.538Z,0.85
2023-03-27T10:17:56.540Z,0.60
2023-03-27T10:21:02.455Z,0.70
2023-03-27T10:24:10.908Z,0.70
2023-03-27T10:27:35.107Z,0.88
2023-03-27T10:30:41.347Z,0.70
2023-03-27T10:33:45.449Z,0.50
2023-03-27T10:36:49.448Z,0.80
2023-03-27T10:39:53.188Z,0.80
2023-03-27T10:43:01.713Z,0.80
2023-03-27T10:46:07.202Z,0.77
2023-03-27T10:49:10.249Z,1.20
2023-03-27T10:52:34.203Z,1.00
2023-03-27T10:55:48.623Z,0.82
2023-03-27T10:59:04.429Z,0.80
2023-03-27T11:02:22.791Z,0.70
2023-03-27T11:05:38.629Z,0.52
2023-03-27T11:09:17.141Z,0.67
2023-03-27T11:12:22.256Z,0.60
2023-03-27T11:15:46.057Z,0.57
2023-03-27T11:19:19.160Z,0.60
2023-03-27T11:22:55.916Z,0.35
2023-03-27T11:26:01.610Z,0.50
2023-03-27T11:29:13.969Z,0.50
2023-03-27T11:32:45.706Z,0.45
2023-03-27T11:35:54.774Z,0.43
2023-03-27T11:39:21.236Z,0.55
2023-03-27T11:42:28.072Z,0.47
2023-03-27T11:45:46.569Z,0.50
2023-03-27T11:49:10.947Z,0.40
2023-03-27T11:52:41.158Z,0.37
2023-03-27T11:56:02.616Z,0.43
2023-03-27T11:59:28.931Z,0.40
2023-03-27T12:03:06.799Z,0.40
2023-03-27T12:06:32.655Z,0.20
2023-03-27T12:09:57.039Z,0.40
2023-03-27T12:13:38.690Z,0.32
2023-03-27T12:17:13.486Z,0.20
2023-03-27T12:20:43.651Z,0.30
2023-03-27T12:24:04.903Z,0.50
2023-03-27T12:27:14.740Z,0.20
2023-03-27T12:30:25.983Z,0.30
2023-03-27T12:33:35.377Z,0.10
2023-03-27T12:36:40.484Z,0.20
2023-03-27T12:39:59.923Z,0.30
2023-03-27T12:43:17.912Z,0.20
2023-03-27T12:46:24.397Z,0.10
2023-03-27T12:49:46.382Z,0.20
2023-03-27T12:52:53.317Z,0.15
2023-03-27T12:56:17.688Z,0.20
2023-03-27T12:59:26.401Z,0.30
2023-03-27T13:02:34.926Z,0.22
2023-03-27T13:05:37.812Z,0.20
2023-03-27T13:09:05.324Z,0.10
2023-03-27T13:12:33.582Z,0.30
2023-03-27T13:15:43.788Z,0.25
2023-03-27T13:19:02.785Z,0.45
2023-03-27T13:22:57.042Z,0.40
2023-03-27T13:26:27.616Z,0.30
2023-03-27T13:29:33.175Z,0.40
2023-03-27T13:32:38.933Z,0.60
2023-03-27T13:35:53.655Z,0.73
2023-03-27T13:38:57.172Z,1.60
2023-03-27T13:42:05.171Z,2.03
2023-03-27T13:45:33.329Z,2.80
2023-03-27T13:48:50.559Z,3.55
2023-03-27T13:52:13.082Z,3.67
2023-03-27T13:55:44.008Z,3.77
2023-03-27T13:59:06.127Z,2.78
2023-03-27T14:02:16.665Z,3.15
2023-03-27T14:05:21.870Z,2.05
2023-03-27T14:08:42.992Z,1.55
2023-03-27T14:12:12.156Z,1.00
2023-03-27T14:15:44.388Z,1.48
2023-03-27T14:19:16.198Z,1.02
2023-03-27T14:22:26.421Z,1.20
2023-03-27T14:25:34.382Z,1.35
2023-03-27T14:28:42.274Z,1.53
2023-03-27T14:31:46.125Z,1.17
2023-03-27T14:35:02.627Z,1.60
2023-03-27T14:38:25.037Z,1.80
2023-03-27T14:41:28.036Z,1.52
2023-03-27T14:44:32.698Z,1.73
2023-03-27T14:47:35.989Z,1.85
2023-03-27T14:50:40.999Z,1.90
2023-03-27T14:53:45.802Z,2.60
2023-03-27T14:56:50.944Z,2.85
2023-03-27T14:59:55.587Z,2.40
2023-03-27T15:03:13.790Z,3.08
2023-03-27T15:06:26.392Z,2.92
2023-03-27T15:09:30.324Z,2.53
2023-03-27T15:12:37.500Z,2.53
2023-03-27T15:15:47.082Z,2.77
2023-03-27T15:19:09.815Z,2.28
2023-03-27T15:22:27.438Z,2.70
2023-03-27T15:25:47.199Z,2.67
2023-03-27T15:29:08.162Z,2.45
2023-03-27T15:32:14.813Z,2.47
2023-03-27T15:35:21.828Z,2.30
2023-03-27T15:38:29.054Z,2.25
2023-03-27T15:41:32.466Z,2.47
2023-03-27T15:44:39.553Z,2.05
2023-03-27T15:47:42.735Z,2.10
2023-03-27T15:51:03.365Z,2.30
2023-03-27T15:54:27.274Z,2.05
2023-03-27T15:57:29.943Z,2.12
2023-03-27T16:00:34.832Z,2.28
2023-03-27T16:03:38.471Z,1.90
2023-03-27T16:06:44.354Z,2.05
2023-03-27T16:09:54.797Z,1.90
2023-03-27T16:13:01.987Z,1.70
2023-03-27T16:16:27.596Z,1.27
2023-03-27T16:19:41.646Z,1.60
2023-03-27T16:22:44.740Z,1.52
2023-03-27T16:25:47.296Z,1.30
2023-03-27T16:28:50.275Z,1.30
2023-03-27T16:31:52.861Z,1.77
2023-03-27T16:34:56.157Z,1.50
2023-03-27T16:37:58.793Z,1.50
2023-03-27T16:41:02.821Z,1.30
2023-03-27T16:44:05.804Z,1.67
2023-03-27T16:47:08.772Z,1.58
2023-03-27T16:50:19.263Z,1.70
2023-03-27T16:53:25.007Z,1.90
2023-03-27T16:56:27.450Z,1.70
2023-03-27T16:59:30.499Z,1.15
2023-03-27T17:02:35.128Z,1.50
2023-03-27T17:05:38.230Z,1.60
2023-03-27T17:08:41.210Z,1.37
2023-03-27T17:11:44.496Z,1.10
2023-03-27T17:14:47.263Z,1.08
2023-03-27T17:17:50.558Z,1.12
2023-03-27T17:20:54.924Z,1.30
2023-03-27T17:27:02.143Z,1.12
2023-03-27T17:30:05.893Z,1.00
2023-03-27T17:33:11.098Z,1.12
2023-03-27T17:36:15.781Z,1.10
2023-03-27T17:39:18.633Z,1.40
2023-03-27T17:42:21.864Z,1.10
2023-03-27T17:45:24.599Z,1.08
2023-03-27T17:48:27.909Z,1.27
2023-03-27T17:51:30.634Z,1.23
2023-03-27T17:54:34.952Z,0.93
2023-03-27T17:57:37.965Z,1.05
2023-03-27T18:00:42.440Z,1.30
2023-03-27T18:03:46.268Z,1.00
2023-03-27T18:06:49.028Z,1.00
2023-03-27T18:09:52.576Z,1.02
2023-03-27T18:12:55.588Z,0.80
2023-03-27T18:15:58.910Z,1.00
2023-03-27T18:19:02.110Z,1.20
2023-03-27T18:22:06.846Z,1.47
2023-03-27T18:25:10.193Z,1.08
2023-03-27T18:28:13.312Z,0.95
2023-03-27T18:31:17.761Z,1.23
2023-03-27T18:34:24.014Z,1.00
2023-03-27T18:37:27.482Z,0.97
2023-03-27T18:40:35.072Z,1.30
2023-03-27T18:43:38.776Z,1.10
2023-03-27T18:46:44.602Z,1.50
2023-03-27T18:49:47.659Z,1.25
2023-03-27T18:52:50.954Z,1.33
2023-03-27T18:55:54.864Z,1.50
2023-03-27T18:58:58.061Z,1.12
2023-03-27T19:02:01.300Z,1.50
2023-03-27T19:05:05.142Z,1.30
2023-03-27T19:08:08.180Z,1.20
2023-03-27T19:11:12.053Z,1.58
2023-03-27T19:14:30.998Z,1.50
2023-03-27T19:17:52.241Z,1.70
2023-03-27T19:21:01.218Z,1.80
2023-03-27T19:24:07.349Z,1.40
2023-03-27T19:27:23.313Z,1.77
2023-03-27T19:30:32.702Z,1.50
2023-03-27T19:33:36.522Z,1.35
2023-03-27T19:36:42.089Z,2.08
2023-03-27T19:39:44.986Z,1.83
2023-03-27T19:42:48.924Z,2.10
2023-03-27T19:46:04.375Z,1.60
2023-03-27T19:49:21.831Z,1.77
2023-03-27T19:52:27.651Z,1.85
2023-03-27T19:55:31.505Z,1.73
2023-03-27T19:58:34.574Z,1.60
2023-03-27T20:01:37.623Z,2.15
2023-03-27T20:04:41.642Z,1.60
2023-03-27T20:07:48.190Z,2.00
2023-03-27T20:10:57.322Z,2.00
2023-03-27T20:14:00.628Z,1.90
2023-03-27T20:17:06.288Z,1.80
2023-03-27T20:20:11.900Z,2.00
2023-03-27T20:23:18.894Z,1.90
2023-03-27T20:26:22.746Z,1.70
2023-03-27T20:29:32.380Z,1.75
2023-03-27T20:32:35.876Z,1.58
2023-03-27T20:35:41.353Z,1.95
2023-03-27T20:38:45.080Z,1.80
2023-03-27T20:41:48.201Z,2.40
2023-03-27T20:44:59.854Z,2.50
2023-03-27T20:48:05.653Z,1.92
2023-03-27T20:51:17.835Z,1.50
2023-03-27T20:54:21.004Z,1.67
2023-03-27T20:57:24.082Z,1.47
2023-03-27T21:00:28.363Z,1.35
2023-03-27T21:03:32.110Z,1.48
2023-03-27T21:06:35.288Z,1.30
2023-03-27T21:09:38.560Z,1.60
2023-03-27T21:12:42.907Z,1.43
2023-03-27T21:15:45.490Z,1.50
2023-03-27T21:18:48.467Z,1.40
2023-03-27T21:21:51.076Z,1.23
2023-03-27T21:24:53.970Z,1.48
2023-03-27T21:27:56.659Z,1.20
2023-03-27T21:31:00.030Z,1.30
2023-03-27T21:34:02.621Z,1.60
2023-03-27T21:37:05.727Z,0.93
2023-03-27T21:40:09.239Z,1.45
2023-03-27T21:43:13.153Z,1.17
2023-03-27T21:46:16.193Z,1.12
2023-03-27T21:49:19.096Z,1.10
2023-03-27T21:52:22.274Z,0.68
2023-03-27T21:55:25.371Z,1.02
2023-03-27T21:58:28.234Z,1.07
2023-03-27T22:01:31.166Z,1.10
2023-03-27T22:04:34.360Z,1.10
2023-03-27T22:07:37.010Z,1.02
2023-03-27T22:10:43.276Z,0.88
2023-03-27T22:13:47.169Z,1.00
2023-03-27T22:16:50.199Z,1.02
2023-03-27T22:19:52.820Z,0.90
2023-03-27T22:22:55.920Z,1.08
2023-03-27T22:25:58.822Z,0.90
2023-03-27T22:29:02.126Z,1.17
2023-03-27T22:32:04.996Z,1.00
2023-03-27T22:35:08.356Z,0.70
2023-03-27T22:38:10.924Z,0.90
2023-03-27T22:41:16.116Z,1.02
2023-03-27T22:44:19.009Z,1.20
2023-03-27T22:47:22.667Z,1.05
2023-03-27T22:50:25.730Z,0.98
2023-03-27T22:53:28.697Z,1.00
2023-03-27T22:56:31.328Z,1.25
2023-03-27T22:59:34.280Z,1.07
2023-03-27T23:02:36.942Z,1.30
2023-03-27T23:05:45.630Z,0.90
2023-03-27T23:08:49.470Z,1.12
2023-03-27T23:11:52.855Z,0.95
2023-03-27T23:14:55.387Z,1.00
2023-03-27T23:17:58.276Z,1.05
2023-03-27T23:21:05.000Z,1.10
2023-03-27T23:24:08.586Z,1.00
2023-03-27T23:27:11.314Z,0.88
2023-03-27T23:30:14.642Z,0.90
2023-03-27T23:33:19.763Z,1.00
2023-03-27T23:36:24.440Z,1.08
2023-03-27T23:39:27.237Z,1.15
2023-03-27T23:42:30.911Z,0.75
2023-03-27T23:45:33.595Z,0.80
2023-03-27T23:48:40.348Z,0.77
2023-03-27T23:51:43.093Z,1.10
2023-03-27T23:54:46.389Z,1.17
2023-03-27T23:57:49.201Z,0.80
